Hlavní strana
METAR-TAF:

METAR-TAF

Letiště :

Acapulco, Mexiko

zeměpisná šířka: 16-46N, zeměpisná délka: 099-45W, výška: 5 m

Aktuální stav počasí

Zpráva byla vytvořena před 54 minutami, v 03:47 UTC
Západní vítr 5 kt
Teplota 25°C
Vlhkost vzduchu 89%
Tlak 1014 hPa
Viditelnost: 8.0 km
Skoro jasno ve výšce 30000 ft

METAR: MMAA 210347Z 27005KT 5SM FEW300 25/23 A2994 RMK 8/002 HZY

Čas: 23:41 (04:41 UTC)

Předpověď počasí

Zpráva byla vytvořena před 5 hodinami a 46 minutami, v 22:55 UTC
Předpověď platná od 21 v 00 UTC do 22 v 06 UTC
Západní vítr 10 kt
Viditelnost: 8.0 km
Polojasno ve výšce 30000 ft
zákal
Od 21 v 0400 UTC
Západoseverozápadní vítr 5 kt
Viditelnost: 8.0 km
Polojasno ve výšce 30000 ft
zákal
Od 21 v 1700 UTC
Západojihozápadní vítr 10 kt
Viditelnost: 10 km
Jasno
Od 22 v 0300 UTC
Západoseverozápadní vítr 5 kt
Viditelnost: 10 km
Jasno

TAF: MMAA 202255Z 2100/2206 26010KT 5SM HZ SCT300 TX29/2117Z TN22/2111Z FM210400 30005KT 5SM HZ SCT300 FM211700 24010KT P6SM SKC FM220300 29005KT P6SM SKC

Stav a předpovědi počasí z více než 4 000 letišť (zprávy METAR a TAF).

Červené a žluté tečky na mapě představují dostupné meteorologické stanice.

Když kurzor umístíte na tečku, zobrazí se název stanice.

Pak kliknutím zobrazíte stav a předpověď počasí.

Chcete-li změnit mapu, kliknutím na zelené tlačítko se znaménkem +mapu přiblížíte, kliknutím na zelené tlačítko se znaménkem – mapu oddálíte a kliknutím na zelené šipky přejdete na sousední mapy.


METAR-TAF: